createdAt,value
2022-12-03T00:00:12.077Z,38.1240
2022-12-03T00:01:08.021Z,38.1920
2022-12-03T00:02:10.437Z,38.2360
2022-12-03T00:03:12.809Z,38.2260
2022-12-03T00:04:12.802Z,38.0650
2022-12-03T00:05:15.358Z,37.9730
2022-12-03T00:06:17.499Z,37.9620
2022-12-03T00:07:17.680Z,37.9740
2022-12-03T00:08:20.047Z,37.9990
2022-12-03T00:09:22.409Z,38.0690
2022-12-03T00:10:22.830Z,38.0890
2022-12-03T00:11:24.977Z,38.1420
2022-12-03T00:12:27.338Z,38.2160
2022-12-03T00:13:29.694Z,38.1650
2022-12-03T00:14:32.062Z,38.0550
2022-12-03T00:15:34.481Z,38.0850
2022-12-03T00:16:34.620Z,38.0440
2022-12-03T00:17:36.964Z,38.0610
2022-12-03T00:18:39.322Z,38.0080
2022-12-03T00:19:39.520Z,38.0710
2022-12-03T00:20:41.942Z,38.0200
2022-12-03T00:21:44.220Z,38.0350
2022-12-03T00:22:46.531Z,38.0470
2022-12-03T00:23:48.882Z,38.0350
2022-12-03T00:24:51.830Z,37.9510
2022-12-03T00:25:51.490Z,37.9550
2022-12-03T00:26:53.768Z,37.9370
2022-12-03T00:27:56.069Z,38.0240
2022-12-03T00:28:58.371Z,37.9910
2022-12-03T00:29:58.542Z,38.0010
2022-12-03T00:31:00.996Z,37.9970
2022-12-03T00:32:03.223Z,37.9410
2022-12-03T00:33:03.419Z,37.9640
2022-12-03T00:34:05.766Z,37.8520
2022-12-03T00:35:08.035Z,37.8990
2022-12-03T00:36:10.479Z,37.9570
2022-12-03T00:37:12.547Z,37.9990
2022-12-03T00:38:14.818Z,37.9680
2022-12-03T00:39:17.155Z,37.9210
2022-12-03T00:40:17.312Z,37.9630
2022-12-03T00:41:19.837Z,37.9790
2022-12-03T00:42:21.948Z,37.9660
2022-12-03T00:43:24.259Z,38.0580
2022-12-03T00:44:26.574Z,37.9660
2022-12-03T00:45:28.904Z,37.9300
2022-12-03T00:46:31.453Z,37.9080
2022-12-03T00:47:33.511Z,37.8700
2022-12-03T00:48:35.809Z,37.8110
2022-12-03T00:49:38.134Z,37.8080
2022-12-03T00:50:40.436Z,37.8220
2022-12-03T00:51:42.920Z,37.8720
2022-12-03T00:52:45.039Z,37.9010
2022-12-03T00:53:45.209Z,37.8720
2022-12-03T00:54:47.513Z,37.8660
2022-12-03T00:55:49.790Z,37.8640
2022-12-03T00:56:52.141Z,37.9060
2022-12-03T00:57:54.434Z,37.8560
2022-12-03T00:58:56.755Z,37.8070
2022-12-03T00:59:58.999Z,37.7830
2022-12-03T01:01:01.222Z,37.7970
2022-12-03T01:02:03.838Z,37.8730
2022-12-03T01:03:05.768Z,37.8640
2022-12-03T01:04:05.964Z,37.8730
2022-12-03T01:05:08.375Z,37.9230
2022-12-03T01:06:10.630Z,37.8410
2022-12-03T01:07:13.031Z,37.8240
2022-12-03T01:08:15.336Z,37.8010
2022-12-03T01:09:17.604Z,37.6970
2022-12-03T01:10:19.937Z,37.6880
2022-12-03T01:11:22.275Z,37.6850
2022-12-03T01:12:24.691Z,37.6690
2022-12-03T01:13:24.829Z,37.6920
2022-12-03T01:14:27.196Z,37.6470
2022-12-03T01:15:29.559Z,37.6740
2022-12-03T01:16:31.959Z,37.6640
2022-12-03T01:17:34.495Z,37.7330
2022-12-03T01:18:36.660Z,37.7920
2022-12-03T01:19:36.892Z,37.7110
2022-12-03T01:20:39.275Z,37.7100
2022-12-03T01:21:41.660Z,37.7060
2022-12-03T01:22:41.942Z,37.6790
2022-12-03T01:23:22.277Z,37.7210
2022-12-03T01:24:25.089Z,37.5190
2022-12-03T01:25:27.332Z,37.4250
2022-12-03T01:26:27.429Z,37.4650
2022-12-03T01:27:29.714Z,37.3630
2022-12-03T01:28:32.241Z,37.3150
2022-12-03T01:29:34.323Z,37.2670
2022-12-03T01:30:36.599Z,37.2560
2022-12-03T01:31:38.943Z,37.2670
2022-12-03T01:32:41.157Z,37.2960
2022-12-03T01:33:41.313Z,37.3020
2022-12-03T01:34:43.571Z,37.2870
2022-12-03T01:35:45.843Z,37.2500
2022-12-03T01:36:48.140Z,37.2390
2022-12-03T01:37:50.447Z,37.2280
2022-12-03T01:38:52.890Z,37.1750
2022-12-03T01:39:55.079Z,37.1460
2022-12-03T01:40:55.260Z,37.1680
2022-12-03T01:41:57.565Z,37.1200
2022-12-03T01:42:59.861Z,37.1040
2022-12-03T01:44:02.186Z,37.0400
2022-12-03T01:45:04.433Z,37.0990
2022-12-03T01:46:06.786Z,37.1740
2022-12-03T01:47:08.999Z,37.1510
2022-12-03T01:48:09.058Z,37.1800
2022-12-03T01:49:11.568Z,37.2140
2022-12-03T01:50:13.609Z,37.1680
2022-12-03T01:51:15.882Z,37.1500
2022-12-03T01:52:18.150Z,37.0860
2022-12-03T01:53:20.476Z,37.1100
2022-12-03T01:54:22.774Z,37.1150
2022-12-03T01:55:22.897Z,37.1590
2022-12-03T01:56:25.190Z,37.1440
2022-12-03T01:57:27.498Z,37.1320
2022-12-03T01:58:29.832Z,37.1150
2022-12-03T01:59:32.107Z,37.0850
2022-12-03T02:00:32.190Z,37.0750
2022-12-03T02:01:34.492Z,37.1310
2022-12-03T02:02:36.763Z,37.1480
2022-12-03T02:03:39.132Z,37.0910
2022-12-03T02:04:41.380Z,37.0450
2022-12-03T02:05:43.626Z,37.0160
2022-12-03T02:06:45.862Z,37.0560
2022-12-03T02:07:48.199Z,36.9410
2022-12-03T02:08:50.395Z,36.9570
2022-12-03T02:09:50.557Z,36.9340
2022-12-03T02:10:52.821Z,36.9690
2022-12-03T02:11:55.123Z,36.9800
2022-12-03T02:12:57.406Z,36.9900
2022-12-03T02:13:59.701Z,37.0070
2022-12-03T02:15:01.971Z,36.9690
2022-12-03T02:16:04.357Z,36.9380
2022-12-03T02:17:04.411Z,36.9630
2022-12-03T02:18:06.665Z,36.9920
2022-12-03T02:19:08.934Z,36.9570
2022-12-03T02:20:11.240Z,36.9330
2022-12-03T02:21:13.468Z,36.9740
2022-12-03T02:22:15.742Z,36.9730
2022-12-03T02:23:18.015Z,37.0410
2022-12-03T02:24:18.165Z,36.9840
2022-12-03T02:25:22.707Z,36.9630
2022-12-03T02:25:35.494Z,36.9570
2022-12-03T02:26:37.764Z,36.9250
2022-12-03T02:27:40.073Z,36.9370
2022-12-03T02:28:42.367Z,37.0070
2022-12-03T02:29:44.650Z,37.0070
2022-12-03T02:30:46.956Z,37.0950
2022-12-03T02:31:47.103Z,37.1480
2022-12-03T02:32:49.341Z,37.2130
2022-12-03T02:33:51.598Z,37.2190
2022-12-03T02:34:54.150Z,37.2900
2022-12-03T02:36:01.930Z,37.2900
2022-12-03T02:36:58.444Z,37.3170
2022-12-03T02:38:00.744Z,37.3600
2022-12-03T02:39:00.871Z,37.2960
2022-12-03T02:40:03.196Z,37.3000
2022-12-03T02:41:05.517Z,37.3870
2022-12-03T02:42:07.760Z,37.4350
2022-12-03T02:43:10.057Z,37.3920
2022-12-03T02:44:12.367Z,37.3830
2022-12-03T02:45:14.655Z,37.4160
2022-12-03T02:46:15.054Z,37.5270
2022-12-03T02:47:17.131Z,37.4760
2022-12-03T02:48:19.434Z,37.4250
2022-12-03T02:49:21.671Z,37.3960
2022-12-03T02:50:23.891Z,37.4350
2022-12-03T02:51:26.137Z,37.4580
2022-12-03T02:52:28.361Z,37.4960
2022-12-03T02:53:30.650Z,37.4900
2022-12-03T02:54:30.791Z,37.4250
2022-12-03T02:55:36.837Z,37.4400
2022-12-03T02:56:35.490Z,37.4680
2022-12-03T02:57:37.643Z,37.5390
2022-12-03T02:58:39.928Z,37.4970
2022-12-03T02:59:44.342Z,37.4730
2022-12-03T03:00:44.532Z,37.4810
2022-12-03T03:01:44.939Z,37.4620
2022-12-03T03:03:32.151Z,37.4740
2022-12-03T03:04:34.368Z,37.5110
2022-12-03T03:05:36.648Z,37.4760
2022-12-03T03:06:38.959Z,37.3580
2022-12-03T03:07:41.374Z,37.3760
2022-12-03T03:08:43.444Z,37.3540
2022-12-03T03:09:45.661Z,37.4270
2022-12-03T03:10:47.949Z,37.3340
2022-12-03T03:11:50.197Z,37.4210
2022-12-03T03:12:50.343Z,37.5520
2022-12-03T03:13:52.517Z,37.5450
2022-12-03T03:14:55.111Z,37.4650
2022-12-03T03:15:57.149Z,37.3970
2022-12-03T03:16:59.354Z,37.4340
2022-12-03T03:18:01.745Z,37.4230
2022-12-03T03:19:03.911Z,37.3920
2022-12-03T03:20:06.182Z,37.4300
2022-12-03T03:21:06.329Z,37.3490
2022-12-03T03:22:08.597Z,37.3400
2022-12-03T03:23:19.720Z,37.4170
2022-12-03T03:24:20.647Z,37.5590
2022-12-03T03:25:20.778Z,37.5830
2022-12-03T03:26:23.055Z,37.6560
2022-12-03T03:27:25.329Z,37.6800
2022-12-03T03:28:27.701Z,37.7840
2022-12-03T03:29:29.995Z,37.7820
2022-12-03T03:30:32.360Z,37.7900
2022-12-03T03:31:34.727Z,37.8230
2022-12-03T03:32:36.940Z,37.7790
2022-12-03T03:33:39.266Z,37.7880
2022-12-03T03:34:41.516Z,37.7880
2022-12-03T03:35:43.798Z,37.7190
2022-12-03T03:36:46.093Z,37.7110
2022-12-03T03:37:48.412Z,37.6650
2022-12-03T03:38:49.904Z,37.6780
2022-12-03T03:39:50.863Z,37.7230
2022-12-03T03:40:53.172Z,37.6570
2022-12-03T03:41:55.551Z,37.7190
2022-12-03T03:42:57.799Z,37.6840
2022-12-03T03:44:00.448Z,37.6580
2022-12-03T03:45:02.307Z,37.7170
2022-12-03T03:46:02.507Z,37.6810
2022-12-03T03:47:04.659Z,37.6600
2022-12-03T03:48:06.922Z,37.6470
2022-12-03T03:49:09.230Z,37.7300
2022-12-03T03:50:11.468Z,37.7090
2022-12-03T03:51:13.765Z,37.6890
2022-12-03T03:52:16.025Z,37.6580
2022-12-03T03:53:18.254Z,37.6140
2022-12-03T03:54:18.426Z,37.6040
2022-12-03T03:55:20.650Z,37.6490
2022-12-03T03:56:22.928Z,37.6630
2022-12-03T03:57:25.207Z,37.6700
2022-12-03T03:58:25.356Z,37.6590
2022-12-03T03:59:27.627Z,37.7010
2022-12-03T04:00:29.882Z,37.6470
2022-12-03T04:01:32.307Z,37.5550
2022-12-03T04:02:32.344Z,37.5940
2022-12-03T04:03:34.697Z,37.6040
2022-12-03T04:04:37.284Z,37.5110
2022-12-03T04:05:37.214Z,37.4820
2022-12-03T04:06:39.553Z,37.5880
2022-12-03T04:07:41.925Z,37.4840
2022-12-03T04:08:44.203Z,37.5000
2022-12-03T04:09:46.585Z,37.5530
2022-12-03T04:10:48.874Z,37.5260
2022-12-03T04:11:51.199Z,37.4820
2022-12-03T04:12:53.580Z,37.4940
2022-12-03T04:13:55.889Z,37.4300
2022-12-03T04:14:56.226Z,37.4380
2022-12-03T04:15:58.369Z,37.5270
2022-12-03T04:17:00.808Z,37.5270
2022-12-03T04:18:03.024Z,37.4830
2022-12-03T04:19:05.393Z,37.5120
2022-12-03T04:20:07.855Z,37.5210
2022-12-03T04:21:10.063Z,37.4670
2022-12-03T04:22:12.385Z,37.4640
2022-12-03T04:23:14.728Z,37.5240
2022-12-03T04:24:14.917Z,37.4950
2022-12-03T04:25:17.349Z,37.4580
2022-12-03T04:26:19.622Z,37.4950
2022-12-03T04:27:21.990Z,37.4950
2022-12-03T04:28:24.335Z,37.4840
2022-12-03T04:29:26.654Z,37.5890
2022-12-03T04:30:26.996Z,37.5780
2022-12-03T04:31:29.232Z,37.5140
2022-12-03T04:32:31.541Z,37.4850
2022-12-03T04:33:33.837Z,37.4510
2022-12-03T04:34:36.106Z,37.4600
2022-12-03T04:35:38.523Z,37.4660
2022-12-03T04:36:40.737Z,37.4570
2022-12-03T04:37:40.932Z,37.4920
2022-12-03T04:38:43.303Z,37.4620
2022-12-03T04:39:45.648Z,37.3650
2022-12-03T04:40:46.063Z,37.4130
2022-12-03T04:41:48.224Z,37.3970
2022-12-03T04:42:50.579Z,37.3740
2022-12-03T04:43:50.801Z,37.3770
2022-12-03T04:44:53.530Z,37.4920
2022-12-03T04:45:55.568Z,37.3420
2022-12-03T04:46:57.723Z,37.3060
2022-12-03T04:47:59.992Z,37.3170
2022-12-03T04:49:02.320Z,37.3240
2022-12-03T04:50:04.644Z,37.3330
2022-12-03T04:51:07.195Z,37.2650
2022-12-03T04:52:09.327Z,37.2710
2022-12-03T04:53:11.600Z,37.2780
2022-12-03T04:54:13.876Z,37.3600
2022-12-03T04:55:16.180Z,37.3250
2022-12-03T04:56:18.495Z,37.3920
2022-12-03T04:57:18.587Z,37.4140
2022-12-03T04:58:20.871Z,37.3310
2022-12-03T04:59:23.173Z,37.3440
2022-12-03T05:01:30.185Z,37.0930
2022-12-03T05:02:31.346Z,37.0920
2022-12-03T05:04:32.611Z,36.9660
2022-12-03T05:05:34.890Z,36.9440
2022-12-03T05:06:37.423Z,36.8570
2022-12-03T05:07:39.455Z,36.9220
2022-12-03T05:08:39.498Z,36.8640
2022-12-03T05:09:41.774Z,36.7360
2022-12-03T05:10:44.106Z,36.6730
2022-12-03T05:11:46.572Z,36.7110
2022-12-03T05:12:48.735Z,36.7720
2022-12-03T05:13:51.052Z,36.7250
2022-12-03T05:14:53.714Z,36.7590
2022-12-03T05:15:53.565Z,36.6660
2022-12-03T05:16:56.003Z,36.6270
2022-12-03T05:17:58.158Z,36.7140
2022-12-03T05:19:00.480Z,36.7870
2022-12-03T05:20:02.798Z,36.7820
2022-12-03T05:21:02.976Z,36.7760
2022-12-03T05:22:05.258Z,36.8080
2022-12-03T05:23:07.536Z,36.7450
2022-12-03T05:24:09.854Z,36.7720
2022-12-03T05:25:12.179Z,36.8140
2022-12-03T05:26:14.499Z,36.7570
2022-12-03T05:27:23.181Z,36.7990
2022-12-03T05:28:16.957Z,36.8870
2022-12-03T05:29:19.291Z,36.8380
2022-12-03T05:30:21.639Z,36.8020
2022-12-03T05:31:24.011Z,36.8620
2022-12-03T05:32:26.389Z,36.8250
2022-12-03T05:33:28.541Z,36.7340
2022-12-03T05:34:28.643Z,36.7380
2022-12-03T05:35:30.936Z,36.8170
2022-12-03T05:36:33.207Z,36.8430
2022-12-03T05:37:35.581Z,36.7100
2022-12-03T05:38:37.835Z,36.7720
2022-12-03T05:39:40.129Z,36.6690
2022-12-03T05:40:40.278Z,36.6630
2022-12-03T05:41:42.562Z,36.6190
2022-12-03T05:42:45.115Z,36.6160
2022-12-03T05:43:47.122Z,36.6910
2022-12-03T05:44:49.346Z,36.7670
2022-12-03T05:45:51.658Z,36.7020
2022-12-03T05:46:53.810Z,36.6400
2022-12-03T05:47:56.083Z,36.6240
2022-12-03T05:48:58.244Z,36.6350
2022-12-03T05:49:58.306Z,36.6100
2022-12-03T05:51:00.513Z,36.6150
2022-12-03T05:52:02.727Z,36.5930
2022-12-03T05:53:05.133Z,36.5540
2022-12-03T05:54:07.176Z,36.5050
2022-12-03T05:55:09.401Z,36.5280
2022-12-03T05:56:11.641Z,36.5980
2022-12-03T05:57:13.816Z,36.6260
2022-12-03T05:58:16.059Z,36.6620
2022-12-03T05:59:18.232Z,36.6510
2022-12-03T06:00:20.452Z,36.5450
2022-12-03T06:01:22.724Z,36.5700
2022-12-03T06:02:25.199Z,36.5570
2022-12-03T06:03:27.615Z,36.5730
2022-12-03T06:04:27.337Z,36.6200
2022-12-03T06:05:29.586Z,36.5920
2022-12-03T06:06:31.854Z,36.6090
2022-12-03T06:07:34.136Z,36.6130
2022-12-03T06:08:36.376Z,36.5860
2022-12-03T06:09:38.558Z,36.5930
2022-12-03T06:10:40.751Z,36.5510
2022-12-03T06:11:43.016Z,36.6070
2022-12-03T06:12:43.150Z,36.6470
2022-12-03T06:13:45.458Z,36.6190
2022-12-03T06:14:47.679Z,36.5860
2022-12-03T06:15:49.995Z,36.5340
2022-12-03T06:16:52.192Z,36.4840
2022-12-03T06:17:54.370Z,36.4430
2022-12-03T06:18:56.630Z,36.4830
2022-12-03T06:19:58.793Z,36.4970
2022-12-03T06:21:00.998Z,36.5370
2022-12-03T06:22:03.219Z,36.4800
2022-12-03T06:23:05.451Z,36.5370
2022-12-03T06:24:07.747Z,36.5120
2022-12-03T06:25:07.793Z,36.4970
2022-12-03T06:26:09.986Z,36.4830
2022-12-03T06:27:12.232Z,36.4740
2022-12-03T06:28:14.488Z,36.5810
2022-12-03T06:29:16.817Z,36.6390
2022-12-03T06:30:18.995Z,36.5950
2022-12-03T06:31:21.361Z,36.5490
2022-12-03T06:32:23.578Z,36.4590
2022-12-03T06:33:25.820Z,36.4270
2022-12-03T06:34:28.071Z,36.4300
2022-12-03T06:35:28.117Z,36.5030
2022-12-03T06:36:30.383Z,36.4210
2022-12-03T06:37:32.660Z,36.4160
2022-12-03T06:38:34.925Z,36.3930
2022-12-03T06:39:37.215Z,36.3810
2022-12-03T06:40:39.398Z,36.3490
2022-12-03T06:41:41.631Z,36.3930
2022-12-03T06:42:43.920Z,36.3900
2022-12-03T06:43:46.193Z,36.3930
2022-12-03T06:44:46.370Z,36.4750
2022-12-03T06:45:48.528Z,36.4480
2022-12-03T06:46:50.859Z,36.4430
2022-12-03T06:47:53.068Z,36.4310
2022-12-03T06:48:55.299Z,36.4100
2022-12-03T06:49:57.591Z,36.3900
2022-12-03T06:50:59.802Z,36.3490
2022-12-03T06:52:02.084Z,36.3010
2022-12-03T06:53:04.336Z,36.2620
2022-12-03T06:54:04.429Z,36.3120
2022-12-03T06:55:06.699Z,36.2430
2022-12-03T06:56:08.909Z,36.1920
2022-12-03T06:57:11.151Z,36.3340
2022-12-03T06:58:13.502Z,36.4140
2022-12-03T06:59:15.843Z,36.3880
2022-12-03T07:00:18.323Z,36.3570
2022-12-03T07:01:18.462Z,36.2890
2022-12-03T07:02:20.701Z,36.2090
2022-12-03T07:03:23.054Z,36.2540
2022-12-03T07:04:25.318Z,36.1820
2022-12-03T07:05:27.778Z,36.2010
2022-12-03T07:06:29.990Z,36.1950
2022-12-03T07:07:30.212Z,36.3400
2022-12-03T07:08:32.479Z,36.3060
2022-12-03T07:09:34.811Z,36.3380
2022-12-03T07:10:37.166Z,36.2670
2022-12-03T07:11:39.453Z,36.3020
2022-12-03T07:12:41.787Z,36.2480
2022-12-03T07:13:41.940Z,36.2150
2022-12-03T07:14:44.251Z,36.1930
2022-12-03T07:15:46.791Z,36.1830
2022-12-03T07:16:48.902Z,36.2170
2022-12-03T07:17:51.223Z,36.2360
2022-12-03T07:18:51.395Z,36.3020
2022-12-03T07:19:53.665Z,36.2430
2022-12-03T07:20:56.071Z,36.2640
2022-12-03T07:21:58.258Z,36.2910
2022-12-03T07:23:00.577Z,36.3830
2022-12-03T07:24:02.907Z,36.3290
2022-12-03T07:25:03.117Z,32.4460
2022-12-03T07:26:05.596Z,32.9440
2022-12-03T07:27:07.828Z,34.0550
2022-12-03T07:28:10.217Z,34.3540
2022-12-03T07:29:12.604Z,34.1740
2022-12-03T07:30:12.872Z,34.3700
2022-12-03T07:31:15.715Z,34.5240
2022-12-03T07:32:17.714Z,34.5500
2022-12-03T07:33:20.123Z,35.0590
2022-12-03T07:34:20.368Z,35.4310
2022-12-03T07:35:22.709Z,35.0530
2022-12-03T07:36:25.166Z,35.3440
2022-12-03T07:37:27.557Z,35.3900
2022-12-03T07:38:27.833Z,35.2190
2022-12-03T07:39:30.255Z,35.2730
2022-12-03T07:40:32.628Z,33.9040
2022-12-03T07:41:32.883Z,33.3390
2022-12-03T07:42:35.243Z,33.4530
2022-12-03T07:43:37.620Z,33.3660
2022-12-03T07:44:40.006Z,33.0980
2022-12-03T07:45:42.384Z,32.8100
2022-12-03T07:46:43.060Z,33.1490
2022-12-03T07:47:44.873Z,33.1770
2022-12-03T07:48:47.205Z,33.2360
2022-12-03T07:49:49.573Z,33.8780
2022-12-03T07:50:51.875Z,33.6500
2022-12-03T07:51:52.275Z,33.3940
2022-12-03T07:52:54.426Z,33.8410
2022-12-03T07:53:56.792Z,33.7190
2022-12-03T07:54:59.193Z,34.1970
2022-12-03T07:55:59.422Z,34.3970
2022-12-03T07:57:02.189Z,34.2220
2022-12-03T07:58:04.144Z,35.7260
2022-12-03T07:59:06.499Z,35.7140
2022-12-03T08:00:08.845Z,37.4080
2022-12-03T08:01:09.171Z,38.7110
2022-12-03T08:02:11.682Z,38.5480
2022-12-03T08:03:13.743Z,38.6660
2022-12-03T08:04:16.065Z,38.3340
2022-12-03T08:05:18.374Z,38.3160
2022-12-03T08:06:18.502Z,38.4760
2022-12-03T08:07:20.893Z,38.4120
2022-12-03T08:08:23.070Z,38.6700
2022-12-03T08:09:25.401Z,38.9790
2022-12-03T08:10:27.735Z,39.0230
2022-12-03T08:11:30.070Z,39.0840
2022-12-03T08:12:30.453Z,38.1290
2022-12-03T08:13:32.462Z,38.3730
2022-12-03T08:14:34.791Z,38.3420
2022-12-03T08:15:39.552Z,38.5080
2022-12-03T08:16:37.357Z,38.8030
2022-12-03T08:17:37.924Z,38.5900
2022-12-03T08:18:39.861Z,38.7140
2022-12-03T08:19:42.213Z,38.7560
2022-12-03T08:20:44.614Z,39.1260
2022-12-03T08:21:46.976Z,39.3660
2022-12-03T08:23:41.132Z,39.5210
2022-12-03T08:24:43.392Z,39.7090
2022-12-03T08:25:45.645Z,39.6140
2022-12-03T08:26:47.953Z,39.4660
2022-12-03T08:27:50.230Z,39.6620
2022-12-03T08:28:52.829Z,38.8650
2022-12-03T08:29:54.820Z,39.0720
2022-12-03T08:30:57.094Z,39.2750
2022-12-03T08:31:57.362Z,39.4950
2022-12-03T08:32:59.444Z,39.8760
2022-12-03T08:34:01.839Z,40.2280
2022-12-03T08:35:04.027Z,39.9960
2022-12-03T08:36:06.349Z,39.7900
2022-12-03T08:37:08.617Z,39.8610
2022-12-03T08:38:10.890Z,40.0110
2022-12-03T08:39:11.131Z,40.0720
2022-12-03T08:40:13.350Z,40.0070
2022-12-03T08:41:15.667Z,40.1810
2022-12-03T08:42:17.968Z,40.1040
2022-12-03T08:43:20.287Z,40.1450
2022-12-03T08:44:22.636Z,40.0860
2022-12-03T08:45:24.955Z,40.2200
2022-12-03T08:46:25.099Z,40.5150
2022-12-03T08:47:27.336Z,40.4810
2022-12-03T08:48:29.652Z,40.6030
2022-12-03T08:49:31.994Z,40.0160
2022-12-03T08:50:34.268Z,40.8410
2022-12-03T08:51:36.603Z,40.6420
2022-12-03T08:52:36.751Z,40.3190
2022-12-03T08:53:39.078Z,40.2800
2022-12-03T08:54:41.639Z,40.3090
2022-12-03T08:55:43.679Z,40.0560
2022-12-03T08:56:45.995Z,39.9200
2022-12-03T08:57:46.191Z,40.7090
2022-12-03T08:58:48.482Z,40.6200
2022-12-03T08:59:51.113Z,40.6060
2022-12-03T09:00:53.229Z,40.5840
2022-12-03T09:01:55.406Z,40.6620
2022-12-03T09:02:57.784Z,40.7210
2022-12-03T09:03:58.127Z,40.7210
2022-12-03T09:05:00.420Z,40.7910
2022-12-03T09:06:02.779Z,40.5900
2022-12-03T09:07:05.159Z,40.6040
2022-12-03T09:08:05.426Z,40.6790
2022-12-03T09:09:07.726Z,40.9490
2022-12-03T09:10:10.110Z,40.7870
2022-12-03T09:11:12.434Z,40.8590
2022-12-03T09:12:14.763Z,40.9430
2022-12-03T09:13:14.959Z,41.0400
2022-12-03T09:14:19.000Z,40.7520
2022-12-03T09:15:19.769Z,40.8480
2022-12-03T09:16:22.188Z,40.9190
2022-12-03T09:17:22.372Z,41.0850
2022-12-03T09:18:24.746Z,40.8790
2022-12-03T09:19:27.145Z,40.9370
2022-12-03T09:20:29.538Z,41.0390
2022-12-03T09:21:31.821Z,40.9790
2022-12-03T09:22:32.020Z,40.9680
2022-12-03T09:25:04.764Z,40.6560
2022-12-03T09:26:07.045Z,40.9680
2022-12-03T09:27:09.342Z,40.9620
2022-12-03T09:28:09.523Z,40.9910
2022-12-03T09:29:12.814Z,40.9910
2022-12-03T09:30:14.174Z,40.8920
2022-12-03T09:31:16.636Z,40.9640
2022-12-03T09:32:19.165Z,40.7700
2022-12-03T09:33:18.972Z,40.9400
2022-12-03T09:34:21.272Z,40.6940
2022-12-03T09:35:23.566Z,40.6270
2022-12-03T09:36:26.161Z,40.7390
2022-12-03T09:37:28.218Z,40.7930
2022-12-03T09:38:30.567Z,40.8070
2022-12-03T09:39:30.742Z,40.9060
2022-12-03T09:40:33.045Z,40.9940
2022-12-03T09:41:35.434Z,40.9430
2022-12-03T09:42:37.717Z,40.9350
2022-12-03T09:44:42.310Z,40.6370
2022-12-03T09:45:42.549Z,39.2500
2022-12-03T09:46:44.901Z,40.6410
2022-12-03T09:47:47.041Z,41.7270
2022-12-03T09:48:49.348Z,41.6420
2022-12-03T09:49:52.095Z,41.6380
2022-12-03T09:50:54.003Z,41.3130
2022-12-03T09:51:54.221Z,40.9410
2022-12-03T09:52:56.494Z,41.0520
2022-12-03T09:53:58.807Z,40.8680
2022-12-03T09:55:01.132Z,40.5500
2022-12-03T09:56:03.495Z,40.8830
2022-12-03T09:57:03.739Z,40.8590
2022-12-03T09:58:06.035Z,40.3880
2022-12-03T09:59:08.392Z,40.5340
2022-12-03T10:00:10.757Z,40.4660
2022-12-03T10:01:13.184Z,40.4830
2022-12-03T10:02:15.582Z,40.6890
2022-12-03T10:03:17.726Z,40.5610
2022-12-03T10:04:20.220Z,40.5680
2022-12-03T10:05:22.407Z,40.6490
2022-12-03T10:06:24.767Z,40.6660
2022-12-03T10:07:25.148Z,40.4490
2022-12-03T10:08:32.026Z,40.4100
2022-12-03T10:09:29.712Z,40.7730
2022-12-03T10:10:29.889Z,40.4680
2022-12-03T10:11:32.245Z,40.1890
2022-12-03T10:12:34.900Z,40.1190
2022-12-03T10:13:36.961Z,40.1380
2022-12-03T10:14:39.323Z,40.1110
2022-12-03T10:15:41.684Z,40.3670
2022-12-03T10:16:42.025Z,40.1350
2022-12-03T10:17:44.320Z,40.0560
2022-12-03T10:18:46.647Z,40.1110
2022-12-03T10:19:48.981Z,40.2840
2022-12-03T10:20:49.217Z,40.2960
2022-12-03T10:21:51.542Z,40.4130
2022-12-03T10:22:53.889Z,40.1100
2022-12-03T10:23:56.181Z,40.0530
2022-12-03T10:24:58.552Z,40.2120
2022-12-03T10:26:00.862Z,40.1580
2022-12-03T10:27:01.046Z,40.1160
2022-12-03T10:28:03.402Z,40.0120
2022-12-03T10:29:05.700Z,40.1460
2022-12-03T10:30:08.028Z,40.6230
2022-12-03T10:31:10.412Z,40.4610
2022-12-03T10:32:10.525Z,40.5610
2022-12-03T10:33:17.244Z,40.9180
2022-12-03T10:34:15.169Z,40.7440
2022-12-03T10:35:17.501Z,40.7280
2022-12-03T10:36:19.829Z,40.7550
2022-12-03T10:37:20.017Z,41.1540
2022-12-03T10:38:22.464Z,41.8480
2022-12-03T10:39:24.650Z,42.4020
2022-12-03T10:40:26.941Z,42.5870
2022-12-03T10:41:29.310Z,42.2200
2022-12-03T10:42:29.517Z,42.3190
2022-12-03T10:43:31.875Z,42.5560
2022-12-03T10:44:34.188Z,42.3350
2022-12-03T10:45:34.398Z,42.4290
2022-12-03T10:46:36.892Z,38.1030
2022-12-03T10:47:39.362Z,36.5500
2022-12-03T10:48:41.731Z,39.9150
2022-12-03T10:49:43.780Z,42.1770
2022-12-03T10:50:46.082Z,43.4910
2022-12-03T10:51:46.280Z,43.7810
2022-12-03T10:52:48.467Z,42.9470
2022-12-03T10:53:50.762Z,42.5740
2022-12-03T10:54:53.405Z,42.6940
2022-12-03T10:55:55.246Z,42.6110
2022-12-03T10:56:57.451Z,42.2560
2022-12-03T10:57:59.710Z,42.4410
2022-12-03T10:59:02.205Z,42.5670
2022-12-03T11:00:55.927Z,42.2200
2022-12-03T11:01:58.243Z,42.4270
2022-12-03T11:02:58.291Z,42.2870
2022-12-03T11:04:00.628Z,42.3590
2022-12-03T11:05:02.842Z,42.3100
2022-12-03T11:06:05.089Z,42.0860
2022-12-03T11:07:07.359Z,42.1430
2022-12-03T11:08:09.728Z,42.1900
2022-12-03T11:09:11.923Z,42.0580
2022-12-03T11:10:14.404Z,42.3410
2022-12-03T11:11:14.351Z,42.1290
2022-12-03T11:12:16.623Z,42.3240
2022-12-03T11:13:18.898Z,42.4910
2022-12-03T11:14:23.326Z,42.4970
2022-12-03T11:15:02.002Z,42.4290
2022-12-03T11:16:04.378Z,42.2560
2022-12-03T11:17:04.395Z,42.1770
2022-12-03T11:18:06.691Z,42.4240
2022-12-03T11:19:08.985Z,42.4930
2022-12-03T11:20:11.294Z,42.4590
2022-12-03T11:21:13.635Z,42.2380
2022-12-03T11:22:15.896Z,42.5590
2022-12-03T11:23:18.188Z,42.2680
2022-12-03T11:24:18.348Z,42.3110
2022-12-03T11:25:20.637Z,42.3430
2022-12-03T11:26:23.151Z,42.2700
2022-12-03T11:27:25.227Z,42.3330
2022-12-03T11:28:27.537Z,42.5790
2022-12-03T11:29:29.843Z,42.6240
2022-12-03T11:30:32.155Z,42.6200
2022-12-03T11:31:32.485Z,42.5060
2022-12-03T11:32:34.596Z,42.5910
2022-12-03T11:33:36.864Z,42.6140
2022-12-03T11:34:39.135Z,42.5380
2022-12-03T11:35:41.378Z,42.3630
2022-12-03T11:37:01.121Z,42.5320
2022-12-03T11:37:43.832Z,42.3980
2022-12-03T11:38:52.193Z,42.4860
2022-12-03T11:39:48.450Z,42.7390
2022-12-03T11:40:50.739Z,42.5080
2022-12-03T11:41:53.325Z,42.2780
2022-12-03T11:42:55.339Z,42.0810
2022-12-03T11:43:57.647Z,41.8660
2022-12-03T11:44:57.831Z,42.3600
2022-12-03T11:46:04.218Z,42.5930
2022-12-03T11:47:02.868Z,42.4410
2022-12-03T11:48:04.804Z,42.2130
2022-12-03T11:49:07.138Z,42.3490
2022-12-03T11:50:07.304Z,42.1280
2022-12-03T11:51:09.591Z,42.2780
2022-12-03T11:52:12.078Z,42.2010
2022-12-03T11:53:14.253Z,42.1500
2022-12-03T11:54:16.523Z,42.3410
2022-12-03T11:55:18.850Z,42.3050
2022-12-03T11:56:19.009Z,41.9540
2022-12-03T11:57:21.498Z,41.5950
2022-12-03T11:58:23.594Z,42.3530
2022-12-03T11:59:25.910Z,41.9150
2022-12-03T12:00:28.208Z,42.2010
2022-12-03T12:01:34.146Z,42.2900
2022-12-03T12:02:30.814Z,42.3660
2022-12-03T12:03:33.693Z,42.2000
2022-12-03T12:04:35.302Z,41.9480
2022-12-03T12:05:37.533Z,42.1330
2022-12-03T12:06:39.815Z,42.0810
2022-12-03T12:07:43.728Z,42.3050
2022-12-03T12:08:44.380Z,42.1680
2022-12-03T12:09:46.701Z,42.2190
2022-12-03T12:10:46.868Z,42.3350
2022-12-03T12:11:49.193Z,42.2130
2022-12-03T12:12:55.154Z,42.2580
2022-12-03T12:13:10.854Z,42.3030
2022-12-03T12:14:13.113Z,42.3640
2022-12-03T12:15:13.254Z,42.4090
2022-12-03T12:16:15.560Z,42.4520
2022-12-03T12:17:17.757Z,42.4330
2022-12-03T12:18:20.076Z,42.4800
2022-12-03T12:19:22.339Z,42.3490
2022-12-03T12:20:24.639Z,42.1250
2022-12-03T12:21:26.938Z,42.2070
2022-12-03T12:22:29.220Z,42.3350
2022-12-03T12:23:29.421Z,42.1730
2022-12-03T12:24:31.649Z,42.2480
2022-12-03T12:25:33.935Z,42.3480
2022-12-03T12:26:36.211Z,42.1790
2022-12-03T12:27:38.489Z,42.2460
2022-12-03T12:28:40.883Z,42.3310
2022-12-03T12:29:43.003Z,42.2460
2022-12-03T12:30:45.264Z,42.2460
2022-12-03T12:31:48.309Z,42.3310
2022-12-03T12:32:47.747Z,42.3560
2022-12-03T12:33:50.118Z,42.3370